sensor_id;sensor_type;location;lat;lon;timestamp;temperature;humidity
53264;DHT22;39153;52.680;6.172;2022-09-01T00:00:22;15.90;99.90
53264;DHT22;39153;52.680;6.172;2022-09-01T00:02:56;15.80;99.90
53264;DHT22;39153;52.680;6.172;2022-09-01T00:05:21;15.80;99.90
53264;DHT22;39153;52.680;6.172;2022-09-01T00:07:47;15.70;99.90
53264;DHT22;39153;52.680;6.172;2022-09-01T00:10:13;15.90;99.90
53264;DHT22;39153;52.680;6.172;2022-09-01T00:12:39;15.70;99.90
53264;DHT22;39153;52.680;6.172;2022-09-01T00:15:06;15.70;99.90
53264;DHT22;39153;52.680;6.172;2022-09-01T00:17:32;15.60;99.90
53264;DHT22;39153;52.680;6.172;2022-09-01T00:19:58;15.60;99.90
53264;DHT22;39153;52.680;6.172;2022-09-01T00:22:23;15.60;99.90
53264;DHT22;39153;52.680;6.172;2022-09-01T00:24:49;15.60;99.90
53264;DHT22;39153;52.680;6.172;2022-09-01T00:27:14;15.60;99.90
53264;DHT22;39153;52.680;6.172;2022-09-01T00:29:40;15.60;99.90
53264;DHT22;39153;52.680;6.172;2022-09-01T00:32:06;15.50;99.90
53264;DHT22;39153;52.680;6.172;2022-09-01T00:34:31;15.50;99.90
53264;DHT22;39153;52.680;6.172;2022-09-01T00:36:57;15.40;99.90
53264;DHT22;39153;52.680;6.172;2022-09-01T00:39:22;15.40;99.90
53264;DHT22;39153;52.680;6.172;2022-09-01T00:41:48;15.40;99.90
53264;DHT22;39153;52.680;6.172;2022-09-01T00:44:16;15.20;99.90
53264;DHT22;39153;52.680;6.172;2022-09-01T00:46:44;15.30;99.90
53264;DHT22;39153;52.680;6.172;2022-09-01T00:49:16;15.20;99.90
53264;DHT22;39153;52.680;6.172;2022-09-01T00:51:46;15.10;99.90
53264;DHT22;39153;52.680;6.172;2022-09-01T00:54:13;15.20;99.90
53264;DHT22;39153;52.680;6.172;2022-09-01T00:56:39;15.10;99.90
53264;DHT22;39153;52.680;6.172;2022-09-01T00:59:05;15.00;99.90
53264;DHT22;39153;52.680;6.172;2022-09-01T01:01:31;15.00;99.90
53264;DHT22;39153;52.680;6.172;2022-09-01T01:04:00;15.00;99.90
53264;DHT22;39153;52.680;6.172;2022-09-01T01:06:26;15.00;99.90
53264;DHT22;39153;52.680;6.172;2022-09-01T01:08:55;14.90;99.90
53264;DHT22;39153;52.680;6.172;2022-09-01T01:11:22;15.00;99.90
53264;DHT22;39153;52.680;6.172;2022-09-01T01:13:54;14.90;99.90
53264;DHT22;39153;52.680;6.172;2022-09-01T01:16:21;14.90;99.90
53264;DHT22;39153;52.680;6.172;2022-09-01T01:18:46;15.00;99.90
53264;DHT22;39153;52.680;6.172;2022-09-01T01:21:14;14.90;99.90
53264;DHT22;39153;52.680;6.172;2022-09-01T01:24:01;14.90;99.90
53264;DHT22;39153;52.680;6.172;2022-09-01T01:26:30;14.90;99.90
53264;DHT22;39153;52.680;6.172;2022-09-01T01:28:56;14.90;99.90
53264;DHT22;39153;52.680;6.172;2022-09-01T01:31:22;14.80;99.90
53264;DHT22;39153;52.680;6.172;2022-09-01T01:33:50;14.80;99.90
53264;DHT22;39153;52.680;6.172;2022-09-01T01:36:17;14.80;99.90
53264;DHT22;39153;52.680;6.172;2022-09-01T01:38:45;14.80;99.90
53264;DHT22;39153;52.680;6.172;2022-09-01T01:41:11;14.80;99.90
53264;DHT22;39153;52.680;6.172;2022-09-01T01:43:38;14.80;99.90
53264;DHT22;39153;52.680;6.172;2022-09-01T01:46:04;14.80;99.90
53264;DHT22;39153;52.680;6.172;2022-09-01T01:48:32;14.80;99.90
53264;DHT22;39153;52.680;6.172;2022-09-01T01:50:59;14.80;99.90
53264;DHT22;39153;52.680;6.172;2022-09-01T01:53:26;14.80;99.90
53264;DHT22;39153;52.680;6.172;2022-09-01T01:55:51;14.80;99.90
53264;DHT22;39153;52.680;6.172;2022-09-01T01:58:17;14.70;99.90
53264;DHT22;39153;52.680;6.172;2022-09-01T02:00:50;14.70;99.90
53264;DHT22;39153;52.680;6.172;2022-09-01T02:03:21;14.70;99.90
53264;DHT22;39153;52.680;6.172;2022-09-01T02:05:50;14.60;99.90
53264;DHT22;39153;52.680;6.172;2022-09-01T02:08:16;14.60;99.90
53264;DHT22;39153;52.680;6.172;2022-09-01T02:10:47;14.50;99.90
53264;DHT22;39153;52.680;6.172;2022-09-01T02:13:14;14.60;99.90
53264;DHT22;39153;52.680;6.172;2022-09-01T02:15:47;14.50;99.90
53264;DHT22;39153;52.680;6.172;2022-09-01T02:18:15;14.50;99.90
53264;DHT22;39153;52.680;6.172;2022-09-01T02:20:42;14.40;99.90
53264;DHT22;39153;52.680;6.172;2022-09-01T02:23:08;14.50;99.90
53264;DHT22;39153;52.680;6.172;2022-09-01T02:25:35;14.50;99.90
53264;DHT22;39153;52.680;6.172;2022-09-01T02:28:01;14.40;99.90
53264;DHT22;39153;52.680;6.172;2022-09-01T02:30:29;14.40;99.90
53264;DHT22;39153;52.680;6.172;2022-09-01T02:33:00;14.30;99.90
53264;DHT22;39153;52.680;6.172;2022-09-01T02:35:26;14.40;99.90
53264;DHT22;39153;52.680;6.172;2022-09-01T02:38:01;14.30;99.90
53264;DHT22;39153;52.680;6.172;2022-09-01T02:40:27;14.10;99.90
53264;DHT22;39153;52.680;6.172;2022-09-01T02:42:56;14.10;99.90
53264;DHT22;39153;52.680;6.172;2022-09-01T02:45:24;14.10;99.90
53264;DHT22;39153;52.680;6.172;2022-09-01T02:47:50;14.10;99.90
53264;DHT22;39153;52.680;6.172;2022-09-01T02:50:16;14.00;99.90
53264;DHT22;39153;52.680;6.172;2022-09-01T02:52:44;14.00;99.90
53264;DHT22;39153;52.680;6.172;2022-09-01T02:55:10;14.10;99.90
53264;DHT22;39153;52.680;6.172;2022-09-01T02:57:36;14.00;99.90
53264;DHT22;39153;52.680;6.172;2022-09-01T03:00:03;14.00;99.90
53264;DHT22;39153;52.680;6.172;2022-09-01T03:02:29;13.90;99.90
53264;DHT22;39153;52.680;6.172;2022-09-01T03:04:55;13.90;99.90
53264;DHT22;39153;52.680;6.172;2022-09-01T03:07:21;14.00;99.90
53264;DHT22;39153;52.680;6.172;2022-09-01T03:09:48;13.90;99.90
53264;DHT22;39153;52.680;6.172;2022-09-01T03:12:14;13.90;99.90
53264;DHT22;39153;52.680;6.172;2022-09-01T03:14:39;13.90;99.90
53264;DHT22;39153;52.680;6.172;2022-09-01T03:17:05;13.90;99.90
53264;DHT22;39153;52.680;6.172;2022-09-01T03:19:30;13.80;99.90
53264;DHT22;39153;52.680;6.172;2022-09-01T03:22:04;13.80;99.90
53264;DHT22;39153;52.680;6.172;2022-09-01T03:24:30;13.80;99.90
53264;DHT22;39153;52.680;6.172;2022-09-01T03:26:56;13.80;99.90
53264;DHT22;39153;52.680;6.172;2022-09-01T03:29:21;13.70;99.90
53264;DHT22;39153;52.680;6.172;2022-09-01T03:31:47;13.70;99.90
53264;DHT22;39153;52.680;6.172;2022-09-01T03:34:13;13.60;99.90
53264;DHT22;39153;52.680;6.172;2022-09-01T03:36:40;13.60;99.90
53264;DHT22;39153;52.680;6.172;2022-09-01T03:39:15;13.60;99.90
53264;DHT22;39153;52.680;6.172;2022-09-01T03:41:40;13.40;99.90
53264;DHT22;39153;52.680;6.172;2022-09-01T03:44:06;13.50;99.90
53264;DHT22;39153;52.680;6.172;2022-09-01T03:46:34;13.50;99.90
53264;DHT22;39153;52.680;6.172;2022-09-01T03:49:00;13.50;99.90
53264;DHT22;39153;52.680;6.172;2022-09-01T03:51:27;13.50;99.90
53264;DHT22;39153;52.680;6.172;2022-09-01T03:53:55;13.50;99.90
53264;DHT22;39153;52.680;6.172;2022-09-01T03:56:22;13.50;99.90
53264;DHT22;39153;52.680;6.172;2022-09-01T03:58:50;13.40;99.90
53264;DHT22;39153;52.680;6.172;2022-09-01T04:01:16;13.40;99.90
53264;DHT22;39153;52.680;6.172;2022-09-01T04:03:42;13.40;99.90
53264;DHT22;39153;52.680;6.172;2022-09-01T04:06:11;13.40;99.90
53264;DHT22;39153;52.680;6.172;2022-09-01T04:08:37;13.30;99.90
53264;DHT22;39153;52.680;6.172;2022-09-01T04:11:09;13.30;99.90
53264;DHT22;39153;52.680;6.172;2022-09-01T04:13:38;13.30;99.90
53264;DHT22;39153;52.680;6.172;2022-09-01T04:16:05;13.30;99.90
53264;DHT22;39153;52.680;6.172;2022-09-01T04:18:54;13.30;99.90
53264;DHT22;39153;52.680;6.172;2022-09-01T04:21:20;13.20;99.90
53264;DHT22;39153;52.680;6.172;2022-09-01T04:23:46;13.20;99.90
53264;DHT22;39153;52.680;6.172;2022-09-01T04:26:13;13.10;99.90
53264;DHT22;39153;52.680;6.172;2022-09-01T04:28:47;13.10;99.90
53264;DHT22;39153;52.680;6.172;2022-09-01T04:31:16;13.10;99.90
53264;DHT22;39153;52.680;6.172;2022-09-01T04:33:43;13.10;99.90
53264;DHT22;39153;52.680;6.172;2022-09-01T04:38:45;13.00;99.90
53264;DHT22;39153;52.680;6.172;2022-09-01T04:41:11;13.00;99.90
53264;DHT22;39153;52.680;6.172;2022-09-01T04:43:45;13.00;99.90
53264;DHT22;39153;52.680;6.172;2022-09-01T04:46:12;13.00;99.90
53264;DHT22;39153;52.680;6.172;2022-09-01T04:48:38;13.00;99.90
53264;DHT22;39153;52.680;6.172;2022-09-01T04:51:07;12.90;99.90
53264;DHT22;39153;52.680;6.172;2022-09-01T04:53:38;12.90;99.90
53264;DHT22;39153;52.680;6.172;2022-09-01T04:56:06;12.90;99.90
53264;DHT22;39153;52.680;6.172;2022-09-01T04:58:34;12.90;99.90
53264;DHT22;39153;52.680;6.172;2022-09-01T05:01:01;12.90;99.90
53264;DHT22;39153;52.680;6.172;2022-09-01T05:03:32;12.80;99.90
53264;DHT22;39153;52.680;6.172;2022-09-01T05:05:58;12.90;99.90
53264;DHT22;39153;52.680;6.172;2022-09-01T05:08:25;12.90;99.90
53264;DHT22;39153;52.680;6.172;2022-09-01T05:10:51;12.80;99.90
53264;DHT22;39153;52.680;6.172;2022-09-01T05:13:19;12.80;99.90
53264;DHT22;39153;52.680;6.172;2022-09-01T05:15:58;12.80;99.90
53264;DHT22;39153;52.680;6.172;2022-09-01T05:18:24;12.90;99.90
53264;DHT22;39153;52.680;6.172;2022-09-01T05:20:50;12.90;99.90
53264;DHT22;39153;52.680;6.172;2022-09-01T05:23:16;12.90;99.90
53264;DHT22;39153;52.680;6.172;2022-09-01T05:25:44;12.90;99.90
53264;DHT22;39153;52.680;6.172;2022-09-01T05:28:11;12.80;99.90
53264;DHT22;39153;52.680;6.172;2022-09-01T05:30:39;12.80;99.90
53264;DHT22;39153;52.680;6.172;2022-09-01T05:33:06;12.90;99.90
53264;DHT22;39153;52.680;6.172;2022-09-01T05:35:38;13.00;99.90
53264;DHT22;39153;52.680;6.172;2022-09-01T05:38:08;13.00;99.90
53264;DHT22;39153;52.680;6.172;2022-09-01T05:40:40;13.00;99.90
53264;DHT22;39153;52.680;6.172;2022-09-01T05:43:07;13.00;99.90
53264;DHT22;39153;52.680;6.172;2022-09-01T05:45:35;13.10;99.90
53264;DHT22;39153;52.680;6.172;2022-09-01T05:48:01;13.00;99.90
53264;DHT22;39153;52.680;6.172;2022-09-01T05:50:27;13.10;99.90
53264;DHT22;39153;52.680;6.172;2022-09-01T05:52:53;13.10;99.90
53264;DHT22;39153;52.680;6.172;2022-09-01T05:55:18;13.20;99.90
53264;DHT22;39153;52.680;6.172;2022-09-01T05:57:44;13.20;99.90
53264;DHT22;39153;52.680;6.172;2022-09-01T06:00:12;13.30;99.90
53264;DHT22;39153;52.680;6.172;2022-09-01T06:02:39;13.30;99.90
53264;DHT22;39153;52.680;6.172;2022-09-01T06:05:05;13.40;99.90
53264;DHT22;39153;52.680;6.172;2022-09-01T06:07:31;13.40;99.90
53264;DHT22;39153;52.680;6.172;2022-09-01T06:09:57;13.60;99.90
53264;DHT22;39153;52.680;6.172;2022-09-01T06:12:24;13.70;99.90
53264;DHT22;39153;52.680;6.172;2022-09-01T06:14:51;13.80;99.90
53264;DHT22;39153;52.680;6.172;2022-09-01T06:17:18;13.80;99.90
53264;DHT22;39153;52.680;6.172;2022-09-01T06:19:52;13.90;99.90
53264;DHT22;39153;52.680;6.172;2022-09-01T06:22:19;13.90;99.90
53264;DHT22;39153;52.680;6.172;2022-09-01T06:24:45;13.90;99.90
53264;DHT22;39153;52.680;6.172;2022-09-01T06:27:12;13.90;99.90
53264;DHT22;39153;52.680;6.172;2022-09-01T06:29:42;14.10;99.90
53264;DHT22;39153;52.680;6.172;2022-09-01T06:32:09;14.10;99.90
53264;DHT22;39153;52.680;6.172;2022-09-01T06:34:40;14.20;99.90
53264;DHT22;39153;52.680;6.172;2022-09-01T06:37:10;14.20;99.90
53264;DHT22;39153;52.680;6.172;2022-09-01T06:39:37;14.30;99.90
53264;DHT22;39153;52.680;6.172;2022-09-01T06:42:03;14.40;99.90
53264;DHT22;39153;52.680;6.172;2022-09-01T06:44:29;14.40;99.90
53264;DHT22;39153;52.680;6.172;2022-09-01T06:46:56;14.40;99.90
53264;DHT22;39153;52.680;6.172;2022-09-01T06:49:22;14.50;99.90
53264;DHT22;39153;52.680;6.172;2022-09-01T06:51:53;14.50;99.90
53264;DHT22;39153;52.680;6.172;2022-09-01T06:54:19;14.70;99.90
53264;DHT22;39153;52.680;6.172;2022-09-01T06:56:47;14.70;99.90
53264;DHT22;39153;52.680;6.172;2022-09-01T06:59:12;14.80;99.90
53264;DHT22;39153;52.680;6.172;2022-09-01T07:01:39;14.90;99.90
53264;DHT22;39153;52.680;6.172;2022-09-01T07:04:05;15.00;99.90
53264;DHT22;39153;52.680;6.172;2022-09-01T07:06:31;15.00;99.90
53264;DHT22;39153;52.680;6.172;2022-09-01T07:08:57;15.20;99.90
53264;DHT22;39153;52.680;6.172;2022-09-01T07:11:25;15.20;99.90
53264;DHT22;39153;52.680;6.172;2022-09-01T07:13:53;15.40;99.90
53264;DHT22;39153;52.680;6.172;2022-09-01T07:16:20;15.40;99.90
53264;DHT22;39153;52.680;6.172;2022-09-01T07:18:47;15.60;99.90
53264;DHT22;39153;52.680;6.172;2022-09-01T07:21:13;15.70;99.90
53264;DHT22;39153;52.680;6.172;2022-09-01T07:23:39;15.70;99.90
53264;DHT22;39153;52.680;6.172;2022-09-01T07:26:06;15.70;99.90
53264;DHT22;39153;52.680;6.172;2022-09-01T07:28:32;15.90;99.90
53264;DHT22;39153;52.680;6.172;2022-09-01T07:30:58;16.00;99.90
53264;DHT22;39153;52.680;6.172;2022-09-01T07:33:25;16.10;99.90
53264;DHT22;39153;52.680;6.172;2022-09-01T07:35:51;16.20;99.90
53264;DHT22;39153;52.680;6.172;2022-09-01T07:38:20;16.40;99.90
53264;DHT22;39153;52.680;6.172;2022-09-01T07:40:45;16.30;99.90
53264;DHT22;39153;52.680;6.172;2022-09-01T07:43:18;16.40;99.90
53264;DHT22;39153;52.680;6.172;2022-09-01T07:45:47;16.40;99.90
53264;DHT22;39153;52.680;6.172;2022-09-01T07:48:14;16.50;99.90
53264;DHT22;39153;52.680;6.172;2022-09-01T07:50:44;16.80;99.90
53264;DHT22;39153;52.680;6.172;2022-09-01T07:53:12;16.90;99.90
53264;DHT22;39153;52.680;6.172;2022-09-01T07:55:43;16.80;99.90
53264;DHT22;39153;52.680;6.172;2022-09-01T07:58:09;17.10;99.90
53264;DHT22;39153;52.680;6.172;2022-09-01T08:00:34;17.20;99.90
53264;DHT22;39153;52.680;6.172;2022-09-01T08:03:01;17.30;99.90
53264;DHT22;39153;52.680;6.172;2022-09-01T08:05:27;17.40;99.90
53264;DHT22;39153;52.680;6.172;2022-09-01T08:07:53;17.40;99.90
53264;DHT22;39153;52.680;6.172;2022-09-01T08:10:18;17.40;99.90
53264;DHT22;39153;52.680;6.172;2022-09-01T08:12:44;17.60;99.90
53264;DHT22;39153;52.680;6.172;2022-09-01T08:15:10;17.60;99.90
53264;DHT22;39153;52.680;6.172;2022-09-01T08:17:36;17.80;99.90
53264;DHT22;39153;52.680;6.172;2022-09-01T08:20:02;17.70;99.90
53264;DHT22;39153;52.680;6.172;2022-09-01T08:22:28;18.00;99.90
53264;DHT22;39153;52.680;6.172;2022-09-01T08:24:53;17.90;99.90
53264;DHT22;39153;52.680;6.172;2022-09-01T08:27:19;18.20;99.90
53264;DHT22;39153;52.680;6.172;2022-09-01T08:29:45;18.40;99.90
53264;DHT22;39153;52.680;6.172;2022-09-01T08:32:11;18.60;99.90
53264;DHT22;39153;52.680;6.172;2022-09-01T08:34:36;18.70;99.90
53264;DHT22;39153;52.680;6.172;2022-09-01T08:37:03;18.80;99.90
53264;DHT22;39153;52.680;6.172;2022-09-01T08:39:29;18.80;99.90
53264;DHT22;39153;52.680;6.172;2022-09-01T08:44:38;19.10;99.90
53264;DHT22;39153;52.680;6.172;2022-09-01T08:47:06;19.20;99.90
53264;DHT22;39153;52.680;6.172;2022-09-01T08:49:32;19.50;99.90
53264;DHT22;39153;52.680;6.172;2022-09-01T08:54:43;19.60;99.10
53264;DHT22;39153;52.680;6.172;2022-09-01T08:59:53;20.00;98.40
53264;DHT22;39153;52.680;6.172;2022-09-01T09:05:07;20.30;97.40
53264;DHT22;39153;52.680;6.172;2022-09-01T09:10:05;20.50;96.70
53264;DHT22;39153;52.680;6.172;2022-09-01T09:15:17;20.70;96.80
53264;DHT22;39153;52.680;6.172;2022-09-01T09:17:48;20.90;96.00
53264;DHT22;39153;52.680;6.172;2022-09-01T09:20:17;20.90;95.30
53264;DHT22;39153;52.680;6.172;2022-09-01T09:22:43;21.00;94.60
53264;DHT22;39153;52.680;6.172;2022-09-01T09:25:14;21.30;94.40
53264;DHT22;39153;52.680;6.172;2022-09-01T09:27:41;21.10;93.70
53264;DHT22;39153;52.680;6.172;2022-09-01T09:30:11;21.30;94.10
53264;DHT22;39153;52.680;6.172;2022-09-01T09:32:50;21.40;93.70
53264;DHT22;39153;52.680;6.172;2022-09-01T09:37:52;21.60;93.60
53264;DHT22;39153;52.680;6.172;2022-09-01T09:40:19;21.70;93.80
53264;DHT22;39153;52.680;6.172;2022-09-01T09:45:26;21.80;93.20
53264;DHT22;39153;52.680;6.172;2022-09-01T09:47:53;21.80;92.90
53264;DHT22;39153;52.680;6.172;2022-09-01T09:50:26;21.90;93.00
53264;DHT22;39153;52.680;6.172;2022-09-01T09:53:10;21.90;92.90
53264;DHT22;39153;52.680;6.172;2022-09-01T09:55:48;21.90;92.50
53264;DHT22;39153;52.680;6.172;2022-09-01T09:58:14;22.00;93.10
53264;DHT22;39153;52.680;6.172;2022-09-01T10:00:40;22.00;92.70
53264;DHT22;39153;52.680;6.172;2022-09-01T10:03:30;22.10;92.20
53264;DHT22;39153;52.680;6.172;2022-09-01T10:05:58;22.20;92.40
53264;DHT22;39153;52.680;6.172;2022-09-01T10:10:52;22.30;92.00
53264;DHT22;39153;52.680;6.172;2022-09-01T10:13:18;22.50;92.10
53264;DHT22;39153;52.680;6.172;2022-09-01T10:15:55;22.30;90.80
53264;DHT22;39153;52.680;6.172;2022-09-01T10:18:22;22.50;92.10
53264;DHT22;39153;52.680;6.172;2022-09-01T10:20:52;22.50;90.60
53264;DHT22;39153;52.680;6.172;2022-09-01T10:23:19;22.50;90.90
53264;DHT22;39153;52.680;6.172;2022-09-01T10:25:45;22.60;90.30
53264;DHT22;39153;52.680;6.172;2022-09-01T10:28:15;22.60;89.50
53264;DHT22;39153;52.680;6.172;2022-09-01T10:30:42;22.70;90.10
53264;DHT22;39153;52.680;6.172;2022-09-01T10:33:10;22.40;90.00
53264;DHT22;39153;52.680;6.172;2022-09-01T10:35:39;22.10;89.60
53264;DHT22;39153;52.680;6.172;2022-09-01T10:38:16;22.20;90.20
53264;DHT22;39153;52.680;6.172;2022-09-01T10:40:43;22.00;89.40
53264;DHT22;39153;52.680;6.172;2022-09-01T10:46:09;22.20;90.30
53264;DHT22;39153;52.680;6.172;2022-09-01T10:48:42;22.50;89.90
53264;DHT22;39153;52.680;6.172;2022-09-01T10:58:38;23.30;87.10
53264;DHT22;39153;52.680;6.172;2022-09-01T11:01:07;23.40;87.40
53264;DHT22;39153;52.680;6.172;2022-09-01T11:03:37;23.90;87.40
53264;DHT22;39153;52.680;6.172;2022-09-01T11:06:04;24.00;82.80
53264;DHT22;39153;52.680;6.172;2022-09-01T11:15:49;23.70;83.40
53264;DHT22;39153;52.680;6.172;2022-09-01T11:20:40;24.10;82.00
53264;DHT22;39153;52.680;6.172;2022-09-01T11:32:57;25.00;81.90
53264;DHT22;39153;52.680;6.172;2022-09-01T11:35:24;24.80;79.70
53264;DHT22;39153;52.680;6.172;2022-09-01T11:37:54;25.30;80.00
53264;DHT22;39153;52.680;6.172;2022-09-01T11:40:22;25.40;80.20
53264;DHT22;39153;52.680;6.172;2022-09-01T11:42:48;25.60;79.50
53264;DHT22;39153;52.680;6.172;2022-09-01T11:45:16;25.20;77.90
53264;DHT22;39153;52.680;6.172;2022-09-01T11:47:44;25.10;78.00
53264;DHT22;39153;52.680;6.172;2022-09-01T11:50:18;25.30;79.40
53264;DHT22;39153;52.680;6.172;2022-09-01T11:52:51;24.90;77.70
53264;DHT22;39153;52.680;6.172;2022-09-01T11:55:26;24.40;78.20
53264;DHT22;39153;52.680;6.172;2022-09-01T11:57:52;24.90;78.70
53264;DHT22;39153;52.680;6.172;2022-09-01T12:00:24;25.00;77.70
53264;DHT22;39153;52.680;6.172;2022-09-01T12:02:50;24.50;77.40
53264;DHT22;39153;52.680;6.172;2022-09-01T12:07:51;24.50;79.30
53264;DHT22;39153;52.680;6.172;2022-09-01T12:10:27;24.70;77.50
53264;DHT22;39153;52.680;6.172;2022-09-01T12:15:25;24.50;78.40
53264;DHT22;39153;52.680;6.172;2022-09-01T12:17:51;24.30;77.80
53264;DHT22;39153;52.680;6.172;2022-09-01T12:20:22;24.80;77.70
53264;DHT22;39153;52.680;6.172;2022-09-01T12:22:48;25.30;77.00
53264;DHT22;39153;52.680;6.172;2022-09-01T12:25:46;25.60;77.10
53264;DHT22;39153;52.680;6.172;2022-09-01T12:28:05;25.20;76.20
53264;DHT22;39153;52.680;6.172;2022-09-01T12:30:31;25.20;74.70
53264;DHT22;39153;52.680;6.172;2022-09-01T12:33:07;25.90;74.80
53264;DHT22;39153;52.680;6.172;2022-09-01T12:35:34;26.30;76.20
53264;DHT22;39153;52.680;6.172;2022-09-01T12:38:15;26.30;73.20
53264;DHT22;39153;52.680;6.172;2022-09-01T12:40:41;26.70;74.20
53264;DHT22;39153;52.680;6.172;2022-09-01T12:43:06;26.70;73.70
53264;DHT22;39153;52.680;6.172;2022-09-01T12:45:42;27.10;73.50
53264;DHT22;39153;52.680;6.172;2022-09-01T12:50:50;27.50;71.90
53264;DHT22;39153;52.680;6.172;2022-09-01T12:53:17;27.60;70.30
53264;DHT22;39153;52.680;6.172;2022-09-01T12:55:53;27.70;70.20
53264;DHT22;39153;52.680;6.172;2022-09-01T12:58:20;27.70;70.60
53264;DHT22;39153;52.680;6.172;2022-09-01T13:03:22;27.80;68.80
53264;DHT22;39153;52.680;6.172;2022-09-01T13:05:52;27.70;69.20
53264;DHT22;39153;52.680;6.172;2022-09-01T13:08:19;28.00;68.00
53264;DHT22;39153;52.680;6.172;2022-09-01T13:10:55;28.20;68.10
53264;DHT22;39153;52.680;6.172;2022-09-01T13:13:21;28.20;69.10
53264;DHT22;39153;52.680;6.172;2022-09-01T13:15:49;28.00;68.80
53264;DHT22;39153;52.680;6.172;2022-09-01T13:18:16;28.60;69.40
53264;DHT22;39153;52.680;6.172;2022-09-01T13:20:43;28.60;68.40
53264;DHT22;39153;52.680;6.172;2022-09-01T13:23:08;28.60;67.50
53264;DHT22;39153;52.680;6.172;2022-09-01T13:25:34;28.80;68.80
53264;DHT22;39153;52.680;6.172;2022-09-01T13:28:00;28.70;68.20
53264;DHT22;39153;52.680;6.172;2022-09-01T13:30:27;28.10;67.80
53264;DHT22;39153;52.680;6.172;2022-09-01T13:32:53;27.90;68.90
53264;DHT22;39153;52.680;6.172;2022-09-01T13:35:19;28.50;69.30
53264;DHT22;39153;52.680;6.172;2022-09-01T13:37:45;28.50;68.30
53264;DHT22;39153;52.680;6.172;2022-09-01T13:40:11;28.70;68.00
53264;DHT22;39153;52.680;6.172;2022-09-01T13:42:40;28.90;68.10
53264;DHT22;39153;52.680;6.172;2022-09-01T13:45:06;28.70;66.60
53264;DHT22;39153;52.680;6.172;2022-09-01T13:47:32;28.60;67.40
53264;DHT22;39153;52.680;6.172;2022-09-01T13:49:58;28.40;67.00
53264;DHT22;39153;52.680;6.172;2022-09-01T13:52:24;27.70;67.70
53264;DHT22;39153;52.680;6.172;2022-09-01T13:54:49;27.60;67.00
53264;DHT22;39153;52.680;6.172;2022-09-01T13:57:15;27.70;67.50
53264;DHT22;39153;52.680;6.172;2022-09-01T13:59:42;27.90;66.90
53264;DHT22;39153;52.680;6.172;2022-09-01T14:02:08;28.60;66.10
53264;DHT22;39153;52.680;6.172;2022-09-01T14:04:34;29.20;68.00
53264;DHT22;39153;52.680;6.172;2022-09-01T14:07:00;29.20;66.40
53264;DHT22;39153;52.680;6.172;2022-09-01T14:09:25;29.30;65.70
53264;DHT22;39153;52.680;6.172;2022-09-01T14:11:52;29.00;65.10
53264;DHT22;39153;52.680;6.172;2022-09-01T14:14:18;28.50;65.00
53264;DHT22;39153;52.680;6.172;2022-09-01T14:16:44;28.00;65.50
53264;DHT22;39153;52.680;6.172;2022-09-01T14:19:10;28.50;66.20
53264;DHT22;39153;52.680;6.172;2022-09-01T14:21:36;28.60;65.10
53264;DHT22;39153;52.680;6.172;2022-09-01T14:24:02;28.60;64.80
53264;DHT22;39153;52.680;6.172;2022-09-01T14:26:27;28.90;64.30
53264;DHT22;39153;52.680;6.172;2022-09-01T14:28:53;28.80;64.30
53264;DHT22;39153;52.680;6.172;2022-09-01T14:31:19;28.90;63.90
53264;DHT22;39153;52.680;6.172;2022-09-01T14:33:45;28.40;64.20
53264;DHT22;39153;52.680;6.172;2022-09-01T14:36:17;28.40;63.70
53264;DHT22;39153;52.680;6.172;2022-09-01T14:38:43;28.60;64.20
53264;DHT22;39153;52.680;6.172;2022-09-01T14:41:11;28.50;63.80
53264;DHT22;39153;52.680;6.172;2022-09-01T14:43:37;28.80;64.20
53264;DHT22;39153;52.680;6.172;2022-09-01T14:46:07;29.30;64.70
53264;DHT22;39153;52.680;6.172;2022-09-01T14:48:35;29.40;63.00
53264;DHT22;39153;52.680;6.172;2022-09-01T14:51:02;28.90;62.70
53264;DHT22;39153;52.680;6.172;2022-09-01T14:53:28;28.70;63.10
53264;DHT22;39153;52.680;6.172;2022-09-01T14:55:54;28.80;63.70
53264;DHT22;39153;52.680;6.172;2022-09-01T14:58:20;28.90;64.00
53264;DHT22;39153;52.680;6.172;2022-09-01T15:00:46;29.20;63.50
53264;DHT22;39153;52.680;6.172;2022-09-01T15:03:12;29.40;63.40
53264;DHT22;39153;52.680;6.172;2022-09-01T15:05:38;29.70;62.90
53264;DHT22;39153;52.680;6.172;2022-09-01T15:08:04;29.70;62.90
53264;DHT22;39153;52.680;6.172;2022-09-01T15:10:30;29.80;63.00
53264;DHT22;39153;52.680;6.172;2022-09-01T15:12:57;29.40;62.90
53264;DHT22;39153;52.680;6.172;2022-09-01T15:15:23;29.50;62.50
53264;DHT22;39153;52.680;6.172;2022-09-01T15:17:48;29.60;62.10
53264;DHT22;39153;52.680;6.172;2022-09-01T15:20:14;29.50;61.80
53264;DHT22;39153;52.680;6.172;2022-09-01T15:22:58;29.70;62.40
53264;DHT22;39153;52.680;6.172;2022-09-01T15:25:24;29.40;61.80
53264;DHT22;39153;52.680;6.172;2022-09-01T15:27:50;29.30;61.20
53264;DHT22;39153;52.680;6.172;2022-09-01T15:30:16;29.50;61.90
53264;DHT22;39153;52.680;6.172;2022-09-01T15:32:45;29.50;61.40
53264;DHT22;39153;52.680;6.172;2022-09-01T15:35:11;29.30;61.30
53264;DHT22;39153;52.680;6.172;2022-09-01T15:37:37;29.50;61.60
53264;DHT22;39153;52.680;6.172;2022-09-01T15:40:03;29.70;61.90
53264;DHT22;39153;52.680;6.172;2022-09-01T15:42:29;29.90;62.00
53264;DHT22;39153;52.680;6.172;2022-09-01T15:44:55;29.70;61.20
53264;DHT22;39153;52.680;6.172;2022-09-01T15:47:20;29.90;60.80
53264;DHT22;39153;52.680;6.172;2022-09-01T15:49:46;30.10;61.40
53264;DHT22;39153;52.680;6.172;2022-09-01T15:52:11;29.70;61.00
53264;DHT22;39153;52.680;6.172;2022-09-01T15:54:37;29.50;61.20
53264;DHT22;39153;52.680;6.172;2022-09-01T15:57:03;29.70;61.40
53264;DHT22;39153;52.680;6.172;2022-09-01T15:59:29;29.50;61.20
53264;DHT22;39153;52.680;6.172;2022-09-01T16:01:55;29.60;61.50
53264;DHT22;39153;52.680;6.172;2022-09-01T16:04:21;29.70;60.80
53264;DHT22;39153;52.680;6.172;2022-09-01T16:06:48;29.90;61.20
53264;DHT22;39153;52.680;6.172;2022-09-01T16:09:15;29.80;61.70
53264;DHT22;39153;52.680;6.172;2022-09-01T16:11:42;29.90;61.10
53264;DHT22;39153;52.680;6.172;2022-09-01T16:14:08;29.70;60.60
53264;DHT22;39153;52.680;6.172;2022-09-01T16:19:23;29.70;60.90
53264;DHT22;39153;52.680;6.172;2022-09-01T16:24:32;29.50;60.80
53264;DHT22;39153;52.680;6.172;2022-09-01T16:27:02;29.70;60.80
53264;DHT22;39153;52.680;6.172;2022-09-01T16:29:37;29.60;60.80
53264;DHT22;39153;52.680;6.172;2022-09-01T16:32:04;29.60;60.70
53264;DHT22;39153;52.680;6.172;2022-09-01T16:34:30;29.70;60.60
53264;DHT22;39153;52.680;6.172;2022-09-01T16:37:10;29.80;61.00
53264;DHT22;39153;52.680;6.172;2022-09-01T16:39:45;29.90;60.70
53264;DHT22;39153;52.680;6.172;2022-09-01T16:50:21;29.80;59.70
53264;DHT22;39153;52.680;6.172;2022-09-01T17:00:16;29.60;59.80